createdAt,value
2022-12-24T00:01:59.264Z,6.25
2022-12-24T00:06:05.380Z,6.31
2022-12-24T00:10:07.538Z,6.00
2022-12-24T00:14:09.018Z,6.24
2022-12-24T00:18:10.497Z,6.10
2022-12-24T00:22:11.967Z,6.04
2022-12-24T00:26:14.401Z,5.98
2022-12-24T00:30:16.059Z,5.98
2022-12-24T00:34:17.488Z,6.06
2022-12-24T00:38:19.002Z,5.78
2022-12-24T00:42:20.975Z,5.83
2022-12-24T00:46:23.946Z,5.89
2022-12-24T00:50:25.460Z,5.93
2022-12-24T00:54:26.881Z,5.98
2022-12-24T00:58:28.309Z,5.93
2022-12-24T01:02:29.964Z,5.84
2022-12-24T01:06:31.540Z,5.72
2022-12-24T01:10:33.069Z,5.76
2022-12-24T01:14:34.521Z,5.90
2022-12-24T01:18:35.950Z,5.82
2022-12-24T01:22:37.372Z,5.89
2022-12-24T01:26:38.820Z,5.89
2022-12-24T01:30:41.284Z,5.70
2022-12-24T01:34:42.921Z,5.70
2022-12-24T01:38:44.423Z,5.82
2022-12-24T01:43:07.595Z,5.71
2022-12-24T01:47:25.718Z,5.82
2022-12-24T01:51:32.867Z,5.87
2022-12-24T01:55:34.501Z,6.03
2022-12-24T01:59:37.554Z,5.91
2022-12-24T02:03:39.204Z,6.01
2022-12-24T02:07:43.115Z,5.89
2022-12-24T02:11:45.042Z,5.75
2022-12-24T02:16:14.190Z,5.82
2022-12-24T02:20:54.551Z,5.97
2022-12-24T02:25:20.283Z,5.97
2022-12-24T02:29:24.432Z,6.05
2022-12-24T02:33:35.820Z,5.84
2022-12-24T02:37:45.856Z,5.99
2022-12-24T02:42:07.814Z,6.04
2022-12-24T02:46:15.196Z,5.82
2022-12-24T02:50:18.161Z,5.98
2022-12-24T02:54:19.793Z,6.05
2022-12-24T02:59:02.738Z,5.92
2022-12-24T03:03:42.542Z,5.98
2022-12-24T03:07:57.384Z,5.99
2022-12-24T03:12:04.120Z,5.90
2022-12-24T03:16:13.274Z,6.05
2022-12-24T03:20:20.818Z,5.74
2022-12-24T03:24:22.353Z,5.96
2022-12-24T03:28:27.653Z,5.83
2022-12-24T03:32:30.836Z,6.16
2022-12-24T03:36:32.289Z,5.96
2022-12-24T03:40:34.102Z,5.78
2022-12-24T03:44:35.583Z,6.02
2022-12-24T03:48:37.125Z,6.23
2022-12-24T03:52:38.666Z,6.04
2022-12-24T03:56:40.104Z,6.00
2022-12-24T04:00:41.623Z,6.07
2022-12-24T04:04:43.158Z,6.16
2022-12-24T04:08:45.161Z,6.13
2022-12-24T04:12:48.950Z,6.06
2022-12-24T04:16:51.774Z,5.82
2022-12-24T04:20:56.793Z,5.97
2022-12-24T04:24:58.217Z,5.84
2022-12-24T04:28:59.653Z,5.97
2022-12-24T04:33:01.674Z,6.02
2022-12-24T04:37:03.672Z,6.06
2022-12-24T04:41:17.395Z,6.02
2022-12-24T04:45:24.066Z,5.93
2022-12-24T04:49:25.603Z,6.00
2022-12-24T04:53:27.017Z,6.11
2022-12-24T04:57:28.445Z,5.76
2022-12-24T05:01:33.097Z,5.70
2022-12-24T05:05:34.825Z,5.71
2022-12-24T05:09:36.309Z,5.72
2022-12-24T05:13:45.999Z,5.66
2022-12-24T05:17:48.391Z,5.76
2022-12-24T05:22:09.774Z,5.78
2022-12-24T05:26:40.325Z,5.69
2022-12-24T05:30:41.803Z,5.56
2022-12-24T05:34:43.345Z,5.57
2022-12-24T05:38:44.824Z,5.51
2022-12-24T05:42:46.230Z,5.43
2022-12-24T05:46:47.786Z,5.56
2022-12-24T05:50:49.249Z,5.60
2022-12-24T05:54:50.697Z,5.60
2022-12-24T05:58:53.572Z,5.69
2022-12-24T06:02:55.201Z,5.54
2022-12-24T06:06:56.721Z,5.73
2022-12-24T06:11:00.461Z,5.64
2022-12-24T06:15:02.091Z,5.44
2022-12-24T06:19:03.568Z,5.46
2022-12-24T06:23:05.037Z,5.42
2022-12-24T06:27:06.541Z,5.76
2022-12-24T06:31:12.711Z,5.74
2022-12-24T06:35:14.238Z,5.48
2022-12-24T06:39:15.690Z,5.39
2022-12-24T06:43:17.241Z,5.49
2022-12-24T06:47:18.670Z,5.41
2022-12-24T06:51:20.761Z,5.64
2022-12-24T06:55:22.227Z,5.66
2022-12-24T06:59:23.722Z,5.78
2022-12-24T07:03:25.227Z,5.66
2022-12-24T07:07:29.552Z,5.69
2022-12-24T07:11:31.112Z,5.90
2022-12-24T07:15:32.641Z,5.96
2022-12-24T07:19:34.309Z,5.82
2022-12-24T07:23:35.787Z,5.93
2022-12-24T07:27:38.317Z,5.95
2022-12-24T07:31:39.856Z,5.32
2022-12-24T07:35:41.370Z,5.72
2022-12-24T07:39:42.803Z,5.85
2022-12-24T07:43:44.355Z,6.01
2022-12-24T07:47:45.780Z,6.00
2022-12-24T07:51:47.251Z,5.91
2022-12-24T07:55:48.893Z,5.90
2022-12-24T07:59:50.338Z,5.87
2022-12-24T08:03:54.519Z,5.89
2022-12-24T08:07:56.494Z,5.92
2022-12-24T08:11:57.952Z,5.76
2022-12-24T08:15:59.634Z,5.90
2022-12-24T08:20:01.137Z,6.03
2022-12-24T08:24:02.620Z,6.13
2022-12-24T08:28:05.590Z,6.22
2022-12-24T08:32:08.313Z,6.08
2022-12-24T08:36:09.898Z,6.09
2022-12-24T08:40:15.195Z,5.94
2022-12-24T08:44:16.676Z,6.08
2022-12-24T08:48:18.206Z,6.14
2022-12-24T08:52:19.738Z,6.22
2022-12-24T08:56:21.203Z,6.15
2022-12-24T09:00:22.925Z,5.81
2022-12-24T09:04:24.391Z,6.25
2022-12-24T09:08:25.837Z,6.39
2022-12-24T09:12:27.345Z,6.56
2022-12-24T09:16:29.058Z,6.55
2022-12-24T09:20:30.571Z,6.40
2022-12-24T09:24:32.294Z,6.26
2022-12-24T09:28:33.816Z,6.38
2022-12-24T09:32:35.301Z,6.49
2022-12-24T09:36:36.851Z,6.31
2022-12-24T09:40:40.349Z,6.24
2022-12-24T09:44:55.640Z,6.07
2022-12-24T09:49:02.632Z,6.32
2022-12-24T09:53:12.550Z,6.27
2022-12-24T09:57:19.404Z,6.53
2022-12-24T10:01:21.057Z,6.44
2022-12-24T10:05:47.943Z,6.27
2022-12-24T10:09:52.147Z,6.29
2022-12-24T10:14:17.535Z,6.35
2022-12-24T10:18:48.900Z,6.66
2022-12-24T10:23:02.833Z,6.64
2022-12-24T10:27:14.792Z,6.79
2022-12-24T10:31:18.003Z,6.78
2022-12-24T10:35:54.173Z,6.60
2022-12-24T10:39:58.111Z,6.49
2022-12-24T10:44:00.136Z,6.68
2022-12-24T10:48:06.077Z,6.98
2022-12-24T10:52:14.497Z,6.97
2022-12-24T10:56:18.660Z,6.96
2022-12-24T11:00:24.320Z,6.97
2022-12-24T11:04:45.033Z,6.96
2022-12-24T11:08:47.196Z,6.91
2022-12-24T11:13:12.855Z,7.95
2022-12-24T11:17:23.123Z,7.29
2022-12-24T11:21:31.306Z,7.82
2022-12-24T11:25:37.910Z,8.18
2022-12-24T11:29:39.376Z,8.29
2022-12-24T11:33:49.598Z,7.91
2022-12-24T11:37:59.780Z,7.74
2022-12-24T11:42:01.290Z,7.88
2022-12-24T11:46:32.650Z,7.90
2022-12-24T11:50:36.674Z,7.99
2022-12-24T11:54:43.385Z,7.94
2022-12-24T11:58:56.695Z,8.11
2022-12-24T12:03:02.464Z,8.10
2022-12-24T12:07:15.102Z,8.53
2022-12-24T12:11:17.259Z,8.67
2022-12-24T12:15:25.569Z,8.17
2022-12-24T12:19:33.634Z,8.44
2022-12-24T12:23:46.998Z,8.33
2022-12-24T12:27:52.961Z,8.92
2022-12-24T12:32:04.442Z,9.09
2022-12-24T12:36:09.996Z,8.83
2022-12-24T12:40:16.309Z,8.87
2022-12-24T12:44:26.583Z,8.40
2022-12-24T12:48:37.075Z,8.41
2022-12-24T12:52:54.276Z,8.76
2022-12-24T12:57:00.875Z,8.67
2022-12-24T13:01:19.201Z,8.55
2022-12-24T13:05:29.743Z,8.56
2022-12-24T13:09:57.389Z,8.37
2022-12-24T13:14:07.918Z,8.39
2022-12-24T13:18:51.829Z,8.36
2022-12-24T13:22:56.364Z,8.65
2022-12-24T13:27:21.194Z,8.76
2022-12-24T13:31:25.416Z,8.71
2022-12-24T13:35:35.265Z,8.91
2022-12-24T13:40:02.884Z,9.11
2022-12-24T13:44:25.011Z,9.19
2022-12-24T13:48:34.504Z,9.07
2022-12-24T13:52:42.147Z,8.51
2022-12-24T13:56:44.155Z,8.49
2022-12-24T14:00:54.999Z,8.49
2022-12-24T14:05:02.093Z,8.41
2022-12-24T14:09:17.010Z,8.52
2022-12-24T14:13:40.008Z,8.54
2022-12-24T14:17:41.640Z,8.38
2022-12-24T14:21:52.616Z,8.27
2022-12-24T14:25:54.050Z,8.18
2022-12-24T14:30:07.122Z,8.08
2022-12-24T14:34:13.115Z,7.82
2022-12-24T14:38:21.329Z,7.54
2022-12-24T14:42:36.069Z,7.37
2022-12-24T14:47:01.507Z,7.33
2022-12-24T14:51:18.136Z,7.23
2022-12-24T14:55:43.363Z,7.17
2022-12-24T14:59:54.819Z,7.28
2022-12-24T15:04:02.197Z,7.37
2022-12-24T15:08:10.270Z,7.47
2022-12-24T15:12:12.598Z,7.42
2022-12-24T15:16:22.487Z,7.29
2022-12-24T15:20:25.448Z,7.14
2022-12-24T15:24:33.345Z,7.24
2022-12-24T15:28:39.208Z,6.87
2022-12-24T15:32:40.718Z,7.08
2022-12-24T15:36:42.211Z,7.15
2022-12-24T15:40:49.009Z,7.18
2022-12-24T15:45:06.035Z,7.16
2022-12-24T15:49:16.126Z,7.18
2022-12-24T15:53:24.686Z,6.97
2022-12-24T15:57:33.928Z,6.83
2022-12-24T16:01:37.850Z,6.88
2022-12-24T16:05:40.143Z,7.05
2022-12-24T16:09:43.791Z,6.97
2022-12-24T16:13:51.391Z,6.80
2022-12-24T16:17:53.277Z,6.65
2022-12-24T16:21:58.254Z,6.63
2022-12-24T16:25:59.807Z,6.60
2022-12-24T16:30:01.299Z,6.65
2022-12-24T16:34:03.649Z,6.64
2022-12-24T16:38:05.245Z,6.58
2022-12-24T16:42:25.365Z,6.48
2022-12-24T16:46:26.936Z,6.39
2022-12-24T16:50:28.505Z,6.28
2022-12-24T16:54:30.143Z,6.23
2022-12-24T16:58:31.800Z,6.22
2022-12-24T17:02:33.376Z,6.38
2022-12-24T17:06:35.043Z,6.48
2022-12-24T17:10:36.976Z,6.37
2022-12-24T17:14:39.114Z,6.43
2022-12-24T17:18:40.640Z,6.58
2022-12-24T17:22:42.162Z,6.46
2022-12-24T17:26:44.185Z,6.41
2022-12-24T17:30:45.794Z,6.43
2022-12-24T17:34:47.330Z,6.42
2022-12-24T17:38:49.069Z,6.52
2022-12-24T17:42:50.585Z,6.57
2022-12-24T17:46:52.285Z,6.57
2022-12-24T17:50:53.876Z,6.69
2022-12-24T17:54:55.431Z,6.47
2022-12-24T17:58:57.807Z,6.69
2022-12-24T18:02:59.513Z,6.53
2022-12-24T18:07:03.154Z,6.54
2022-12-24T18:11:16.701Z,6.66
2022-12-24T18:15:20.212Z,6.78
2022-12-24T18:19:21.703Z,6.75
2022-12-24T18:23:23.172Z,6.98
2022-12-24T18:27:24.638Z,6.66
2022-12-24T18:31:26.962Z,6.93
2022-12-24T18:35:28.779Z,7.06
2022-12-24T18:39:30.239Z,7.14
2022-12-24T18:43:31.813Z,6.99
2022-12-24T18:47:33.227Z,7.18
2022-12-24T18:51:36.164Z,7.10
2022-12-24T18:55:38.227Z,7.18
2022-12-24T18:59:39.716Z,7.15
2022-12-24T19:03:41.219Z,7.18
2022-12-24T19:07:42.720Z,7.01
2022-12-24T19:11:44.207Z,7.07
2022-12-24T19:15:45.753Z,7.07
2022-12-24T19:19:47.265Z,6.90
2022-12-24T19:23:49.125Z,6.93
2022-12-24T19:27:50.589Z,7.05
2022-12-24T19:31:52.270Z,7.02
2022-12-24T19:35:53.980Z,6.85
2022-12-24T19:39:55.455Z,6.71
2022-12-24T19:44:01.350Z,6.84
2022-12-24T19:48:03.290Z,6.62
2022-12-24T19:52:04.861Z,6.53
2022-12-24T19:56:08.574Z,6.49
2022-12-24T20:00:10.961Z,6.52
2022-12-24T20:04:12.442Z,6.55
2022-12-24T20:08:13.972Z,6.49
2022-12-24T20:12:15.440Z,6.47
2022-12-24T20:16:21.562Z,6.29
2022-12-24T20:20:23.148Z,6.16
2022-12-24T20:24:24.629Z,6.46
2022-12-24T20:28:30.947Z,6.23
2022-12-24T20:32:33.632Z,6.18
2022-12-24T20:36:37.161Z,6.30
2022-12-24T20:40:43.431Z,6.46
2022-12-24T20:44:44.879Z,6.27
2022-12-24T20:48:46.935Z,6.55
2022-12-24T20:52:48.352Z,6.47
2022-12-24T20:56:58.271Z,6.46
2022-12-24T21:01:00.482Z,6.15
2022-12-24T21:05:02.956Z,6.13
2022-12-24T21:09:05.986Z,6.30
2022-12-24T21:13:07.893Z,6.31
2022-12-24T21:17:15.198Z,6.31
2022-12-24T21:21:17.658Z,6.32
2022-12-24T21:25:19.200Z,6.23
2022-12-24T21:29:20.674Z,6.19
2022-12-24T21:33:22.498Z,6.19
2022-12-24T21:37:23.981Z,6.27
2022-12-24T21:41:26.141Z,6.45
2022-12-24T21:45:27.683Z,6.31
2022-12-24T21:49:47.775Z,6.45
2022-12-24T21:54:08.123Z,6.36
2022-12-24T21:58:09.493Z,6.39
2022-12-24T22:02:13.821Z,6.46
2022-12-24T22:06:35.794Z,6.47
2022-12-24T22:10:56.992Z,6.34
2022-12-24T22:14:59.193Z,6.19
2022-12-24T22:19:00.641Z,6.31
2022-12-24T22:23:02.195Z,6.20
2022-12-24T22:27:03.639Z,6.24
2022-12-24T22:31:05.355Z,6.05
2022-12-24T22:35:07.050Z,6.43
2022-12-24T22:39:08.579Z,6.44
2022-12-24T22:43:10.111Z,6.24
2022-12-24T22:47:11.584Z,6.44
2022-12-24T22:51:19.346Z,6.51
2022-12-24T22:55:21.500Z,6.23
2022-12-24T22:59:22.968Z,6.14
2022-12-24T23:03:25.185Z,6.35
2022-12-24T23:07:26.778Z,6.23
2022-12-24T23:11:28.338Z,6.03
2022-12-24T23:15:29.896Z,5.95
2022-12-24T23:19:33.369Z,5.99
2022-12-24T23:23:37.065Z,5.81
2022-12-24T23:27:38.740Z,6.03
2022-12-24T23:31:40.248Z,5.91
2022-12-24T23:35:41.763Z,5.68
2022-12-24T23:39:43.175Z,5.56
2022-12-24T23:43:45.471Z,5.54
2022-12-24T23:47:46.907Z,5.58
2022-12-24T23:51:48.388Z,5.59
2022-12-24T23:55:49.915Z,5.47
2022-12-24T23:59:51.397Z,5.38
